The World — C6RW4 — position and weather

sailwx.info

Track history (hours):
 
Tides and Currents Weather Stations Pressure Air Temp Water Temp Dewpoint Dewpoint Depression Visibility Wind Speed Wind Dir Waves Ship Positions

The World

Operator: Bergshav-Norway

Last reported at 2017-Dec-03 08:47 UTC. Time now 2017-Dec-14 14:59 UTC.
Position N 27°15' W 079°53'.
Warning: this ship's position is 11 days out of date.

Length 196 m; draft 7.1 m.

Type: Passenger vessel. MMSI: 311213000.

Date/timePositionNaut miles runAvg speedWind from/ knotsBaromVisibWave heightAir tempDewpointWater temp
2017-Dec-03 08:47N 27°15' W 079°53'2 9.3
2017-Dec-03 08:31N 27°13' W 079°52'6 9.5
2017-Dec-03 07:51N 27°07' W 079°51'4 9.7
2017-Dec-03 07:26N 27°03' W 079°50'410.0
2017-Dec-03 07:00N 26°59' W 079°49'5 9.1
2017-Dec-03 06:30N 26°55' W 079°51'5 9.1
2017-Dec-03 06:01N 26°51' W 079°54'4 8.1
2017-Dec-03 05:30N 26°48' W 079°57'4 8.5
2017-Dec-03 05:00N 26°46' W 080°01'2 3.1
2017-Dec-03 04:25N 26°46' W 080°03'0 0.0
2017-Dec-03 03:55N 26°46' W 080°03'0 0.0
2017-Dec-03 03:25N 26°46' W 080°03'0 0.0
2017-Dec-03 02:55N 26°46' W 080°03'0 0.0
2017-Dec-03 02:25N 26°46' W 080°03'0 0.0
2017-Dec-03 01:55N 26°46' W 080°03'0 0.0
2017-Dec-03 01:19N 26°46' W 080°03'0 0.0
2017-Dec-03 00:55N 26°46' W 080°03'0 0.0
2017-Dec-03 00:19N 26°46' W 080°03'0 0.0
2017-Dec-02 23:55N 26°46' W 080°03'0 0.0
2017-Dec-02 23:25N 26°46' W 080°03'0 0.0
2017-Dec-02 22:55N 26°46' W 080°03'0 0.0
2017-Dec-02 22:25N 26°46' W 080°03'0 0.0
2017-Dec-02 21:55N 26°46' W 080°03'0 0.0
2017-Dec-02 21:25N 26°46' W 080°03'0 0.0
2017-Dec-02 20:55N 26°46' W 080°03'0 0.0
2017-Dec-02 20:25N 26°46' W 080°03'0 0.0
2017-Dec-02 19:55N 26°46' W 080°03'0 0.0
2017-Dec-02 19:25N 26°46' W 080°03'0 0.0
2017-Dec-02 18:55N 26°46' W 080°03'0 0.0
2017-Dec-02 18:25N 26°46' W 080°03'0 0.0
2017-Dec-02 17:55N 26°46' W 080°03'0 0.0
2017-Dec-02 17:25N 26°46' W 080°03'0 0.0
2017-Dec-02 16:55N 26°46' W 080°03'0 0.0
2017-Dec-02 16:25N 26°46' W 080°03'0 0.0
2017-Dec-02 15:55N 26°46' W 080°03'0 0.0
2017-Dec-02 15:25N 26°46' W 080°03'0 0.0
2017-Dec-02 14:55N 26°46' W 080°03'0 0.0
2017-Dec-02 14:25N 26°46' W 080°03'0 0.0
2017-Dec-02 13:55N 26°46' W 080°03'0 0.0
2017-Dec-02 13:25N 26°46' W 080°03'0 0.0
2017-Dec-02 12:55N 26°46' W 080°03'1 2.2
2017-Dec-02 12:30N 26°46' W 080°02'4 8.5
2017-Dec-02 12:00N 26°46' W 079°57'5 9.5
2017-Dec-02 11:30N 26°45' W 079°52'4 7.7
2017-Dec-02 11:00N 26°44' W 079°48'4 7.3
2017-Dec-02 10:30N 26°43' W 079°44'5 8.9
2017-Dec-02 09:56N 26°38' W 079°44'4 9.1
2017-Dec-02 09:30N 26°34' W 079°43'5 9.7
2017-Dec-02 09:00N 26°29' W 079°43'5 9.7
2017-Dec-02 08:30N 26°25' W 079°43'510.0
2017-Dec-02 08:00N 26°20' W 079°43'7 9.9
2017-Dec-02 07:18N 26°13' W 079°42'3 9.6
2017-Dec-02 07:00N 26°10' W 079°42'4 8.5
2017-Dec-02 06:30N 26°06' W 079°43'4 7.3
2017-Dec-02 06:00N 26°06' W 079°48'4 7.6
2017-Dec-02 05:30N 26°06' W 079°52'4 7.9
2017-Dec-02 05:01N 26°05' W 079°56'4 8.1
2017-Dec-02 04:30N 26°05' W 080°01'4 8.4
2017-Dec-02 04:00N 26°06' W 080°05'2 2.6
2017-Dec-02 03:25N 26°05' W 080°07'0 0.0
2017-Dec-02 02:55N 26°05' W 080°07'0 0.0
2017-Dec-02 02:25N 26°05' W 080°07'0 0.0
2017-Dec-02 01:55N 26°05' W 080°07'0 0.0
2017-Dec-02 01:25N 26°05' W 080°07'0 0.0
2017-Dec-02 00:58N 26°05' W 080°07'0 0.0
2017-Dec-02 00:28N 26°05' W 080°07'0 0.0
2017-Dec-01 23:58N 26°05' W 080°07'0 0.0
2017-Dec-01 23:28N 26°05' W 080°07'0 0.0
2017-Dec-01 22:55N 26°05' W 080°07'0 0.0
2017-Dec-01 22:28N 26°05' W 080°07'0 0.0
2017-Dec-01 21:58N 26°05' W 080°07'0 0.0
2017-Dec-01 21:28N 26°05' W 080°07'0 0.0
2017-Dec-01 20:58N 26°05' W 080°07'0 0.0
2017-Dec-01 20:28N 26°05' W 080°07'0 0.0
2017-Dec-01 19:58N 26°05' W 080°07'0 0.0
2017-Dec-01 19:28N 26°05' W 080°07'0 0.0
2017-Dec-01 18:58N 26°05' W 080°07'0 0.0
2017-Dec-01 18:28N 26°05' W 080°07'0 0.0
2017-Dec-01 17:49N 26°05' W 080°07'0 0.0
2017-Dec-01 17:19N 26°05' W 080°07'0 0.0
2017-Dec-01 16:49N 26°05' W 080°07'0 0.0
2017-Dec-01 16:22N 26°05' W 080°07'0 0.0
2017-Dec-01 15:52N 26°05' W 080°07'0 0.0
2017-Dec-01 15:22N 26°05' W 080°07'0 0.0
2017-Dec-01 14:52N 26°05' W 080°07'0 0.0
2017-Dec-01 14:22N 26°05' W 080°07'0 0.0
2017-Dec-01 13:52N 26°05' W 080°07'0 0.0
2017-Dec-01 13:25N 26°05' W 080°07'0 0.0
2017-Dec-01 12:55N 26°05' W 080°07'0 0.0
2017-Dec-01 12:25N 26°05' W 080°07'0 0.0
2017-Dec-01 11:55N 26°05' W 080°07'0 0.0
2017-Dec-01 11:25N 26°05' W 080°07'0 0.0
2017-Dec-01 10:58N 26°05' W 080°07'0 0.0
2017-Dec-01 10:28N 26°05' W 080°07'0 0.0
2017-Dec-01 09:58N 26°05' W 080°07'0 0.0
2017-Dec-01 09:28N 26°05' W 080°07'0 0.0
2017-Dec-01 08:58N 26°05' W 080°07'0 0.0
2017-Dec-01 08:28N 26°05' W 080°07'0 0.0
2017-Dec-01 07:58N 26°05' W 080°07'0 0.0
2017-Dec-01 07:28N 26°05' W 080°07'0 0.0
2017-Dec-01 06:58N 26°05' W 080°07'0 0.0
2017-Dec-01 06:28N 26°05' W 080°07'0 0.0
2017-Dec-01 05:58N 26°05' W 080°07'0 0.0
2017-Dec-01 05:28N 26°05' W 080°07'0 0.0
2017-Dec-01 04:58N 26°05' W 080°07'0 0.0
2017-Dec-01 04:28N 26°05' W 080°07'0 0.0
2017-Dec-01 03:49N 26°05' W 080°07'0 0.0
2017-Dec-01 03:19N 26°05' W 080°07'0 0.0
2017-Dec-01 02:49N 26°05' W 080°07'0 0.0
2017-Dec-01 02:22N 26°05' W 080°07'0 0.0
2017-Dec-01 01:52N 26°05' W 080°07'0 0.0
2017-Dec-01 01:22N 26°05' W 080°07'0 0.0
2017-Dec-01 00:52N 26°05' W 080°07'0 0.0
2017-Dec-01 00:22N 26°05' W 080°07'0 0.0
2017-Nov-30 23:55N 26°05' W 080°07'0 0.0
2017-Nov-30 23:25N 26°05' W 080°07'0 0.0
2017-Nov-30 22:55N 26°05' W 080°07'0 0.0
2017-Nov-30 22:25N 26°05' W 080°07'0 0.0
2017-Nov-30 21:55N 26°05' W 080°07'0 0.0
2017-Nov-30 21:25N 26°05' W 080°07'0 0.0
2017-Nov-30 20:58N 26°05' W 080°07'0 0.0
2017-Nov-30 20:28N 26°05' W 080°07'0 0.0
2017-Nov-30 19:58N 26°05' W 080°07'0 0.0
2017-Nov-30 19:25N 26°05' W 080°07'0 0.0
2017-Nov-30 18:58N 26°05' W 080°07'0 0.0
2017-Nov-30 18:28N 26°05' W 080°07'0 0.0
2017-Nov-30 17:58N 26°05' W 080°07'0 0.0
2017-Nov-30 17:28N 26°05' W 080°07'0 0.0
2017-Nov-30 16:58N 26°05' W 080°07'0 0.0
2017-Nov-30 16:28N 26°05' W 080°07'0 0.0
2017-Nov-30 15:58N 26°05' W 080°07'0 0.0
2017-Nov-30 15:28N 26°05' W 080°07'0 0.0
2017-Nov-30 14:49N 26°05' W 080°07'0 0.0
2017-Nov-30 14:28N 26°05' W 080°07'0 0.0
2017-Nov-30 13:49N 26°05' W 080°07'0 0.0
2017-Nov-30 13:19N 26°05' W 080°07'0 0.0
2017-Nov-30 12:49N 26°05' W 080°07'0 0.0
2017-Nov-30 12:22N 26°05' W 080°07'0 0.0
2017-Nov-30 11:52N 26°05' W 080°07'0 0.0
2017-Nov-30 11:22N 26°05' W 080°07'0 0.0
2017-Nov-30 10:52N 26°05' W 080°07'0 0.0
2017-Nov-30 10:22N 26°05' W 080°07'0 0.0
2017-Nov-30 09:55N 26°05' W 080°07'0 0.0
2017-Nov-30 09:25N 26°05' W 080°07'0 0.0
2017-Nov-30 08:52N 26°05' W 080°07'0 0.0
2017-Nov-30 08:25N 26°05' W 080°07'0 0.0
2017-Nov-30 07:55N 26°05' W 080°07'0 0.0
2017-Nov-30 07:28N 26°05' W 080°07'0 0.0
2017-Nov-30 06:58N 26°05' W 080°07'0 0.0
2017-Nov-30 06:28N 26°05' W 080°07'0 0.0
2017-Nov-30 05:58N 26°05' W 080°07'0 0.0
2017-Nov-30 05:28N 26°05' W 080°07'0 0.0
2017-Nov-30 04:58N 26°05' W 080°07'0 0.0
2017-Nov-30 04:28N 26°05' W 080°07'0 0.0
2017-Nov-30 03:58N 26°05' W 080°07'0 0.0
2017-Nov-30 03:28N 26°05' W 080°07'0 0.0
2017-Nov-30 02:58N 26°05' W 080°07'0 0.0
2017-Nov-30 02:28N 26°05' W 080°07'0 0.0
2017-Nov-30 01:58N 26°05' W 080°07'0 0.0
2017-Nov-30 01:28N 26°05' W 080°07'0 0.0
2017-Nov-30 00:58N 26°05' W 080°07'0 0.0
2017-Nov-30 00:19N 26°05' W 080°07'0 0.0
2017-Nov-29 23:49N 26°05' W 080°07'0 0.0
2017-Nov-29 23:19N 26°05' W 080°07'0 0.0
2017-Nov-29 22:52N 26°05' W 080°07'0 0.0
2017-Nov-29 22:22N 26°05' W 080°07'0 0.0
2017-Nov-29 21:52N 26°05' W 080°07'0 0.0
2017-Nov-29 21:22N 26°05' W 080°07'0 0.0
2017-Nov-29 20:52N 26°05' W 080°07'0 0.0
2017-Nov-29 20:22N 26°05' W 080°07'0 0.0
2017-Nov-29 19:52N 26°05' W 080°07'0 0.0
2017-Nov-29 19:25N 26°05' W 080°07'0 0.0
2017-Nov-29 18:55N 26°05' W 080°07'0 0.0
2017-Nov-29 18:25N 26°05' W 080°07'0 0.0
2017-Nov-29 17:55N 26°05' W 080°07'0 0.0
2017-Nov-29 17:28N 26°05' W 080°07'0 0.0
2017-Nov-29 16:58N 26°05' W 080°07'0 0.0
2017-Nov-29 16:28N 26°05' W 080°07'0 0.0
2017-Nov-29 15:58N 26°05' W 080°07'0 0.0
2017-Nov-29 15:28N 26°05' W 080°07'0 0.0
2017-Nov-29 14:58N 26°05' W 080°07'0 0.0
2017-Nov-29 14:28N 26°05' W 080°07'0 0.0
2017-Nov-29 13:58N 26°05' W 080°07'0 0.0
2017-Nov-29 13:28N 26°05' W 080°07'0 0.0
2017-Nov-29 12:58N 26°05' W 080°07'0 0.0
2017-Nov-29 12:28N 26°05' W 080°07'0 0.0
2017-Nov-29 11:58N 26°05' W 080°07'0 0.0
2017-Nov-29 11:28N 26°05' W 080°07'0 0.0
2017-Nov-29 10:46N 26°05' W 080°07'0 0.0
2017-Nov-29 10:19N 26°05' W 080°07'0 0.0
2017-Nov-29 09:49N 26°05' W 080°07'0 0.0
2017-Nov-29 09:19N 26°05' W 080°07'0 0.0
2017-Nov-29 08:52N 26°05' W 080°07'0 0.0
2017-Nov-29 08:22N 26°05' W 080°07'0 0.0
2017-Nov-29 07:52N 26°05' W 080°07'0 0.0
2017-Nov-29 07:22N 26°05' W 080°07'0 0.0
2017-Nov-29 06:52N 26°05' W 080°07'0 0.0
2017-Nov-29 06:22N 26°05' W 080°07'0 0.0
2017-Nov-29 05:55N 26°05' W 080°07'0 0.0
2017-Nov-29 05:25N 26°05' W 080°07'0 0.0
2017-Nov-29 04:55N 26°05' W 080°07'0 0.0
2017-Nov-29 04:25N 26°05' W 080°07'0 0.0
2017-Nov-29 03:55N 26°05' W 080°07'0 0.0
2017-Nov-29 03:28N 26°05' W 080°07'0 0.0
2017-Nov-29 02:58N 26°05' W 080°07'0 0.0
2017-Nov-29 02:28N 26°05' W 080°07'0 0.0
2017-Nov-29 01:58N 26°05' W 080°07'0 0.0
2017-Nov-29 01:28N 26°05' W 080°07'0 0.0
2017-Nov-29 00:58N 26°05' W 080°07'0 0.0
2017-Nov-29 00:28N 26°05' W 080°07'0 0.0
2017-Nov-28 23:58N 26°05' W 080°07'0 0.0
2017-Nov-28 23:28N 26°05' W 080°07'0 0.0
2017-Nov-28 22:58N 26°05' W 080°07'0 0.0
2017-Nov-28 22:28N 26°05' W 080°07'0 0.0
2017-Nov-28 21:58N 26°05' W 080°07'0 0.0
2017-Nov-28 21:19N 26°05' W 080°07'0 0.0
2017-Nov-28 20:58N 26°05' W 080°07'0 0.0
2017-Nov-28 20:19N 26°05' W 080°07'0 0.0
2017-Nov-28 19:49N 26°05' W 080°07'0 0.0
2017-Nov-28 19:19N 26°05' W 080°07'0 0.0
2017-Nov-28 18:52N 26°05' W 080°07'0 0.0
2017-Nov-28 18:22N 26°05' W 080°07'0 0.0
2017-Nov-28 17:52N 26°05' W 080°07'0 0.0
2017-Nov-28 17:22N 26°05' W 080°07'0 0.0
2017-Nov-28 16:52N 26°05' W 080°07'0 0.0
2017-Nov-28 16:25N 26°05' W 080°07'0 0.0
2017-Nov-28 15:55N 26°05' W 080°07'0 0.0
2017-Nov-28 14:55N 26°05' W 080°07'0 0.0
2017-Nov-28 14:25N 26°05' W 080°07'0 0.0
2017-Nov-28 13:55N 26°05' W 080°07'0 0.0
2017-Nov-28 13:28N 26°05' W 080°07'0 0.0
2017-Nov-28 12:58N 26°05' W 080°07'0 0.0
2017-Nov-28 12:28N 26°05' W 080°07'0 0.0
2017-Nov-28 11:58N 26°05' W 080°07'0 0.0
2017-Nov-28 11:28N 26°05' W 080°07'0 0.0
2017-Nov-28 10:58N 26°05' W 080°07'0 0.0
2017-Nov-28 10:28N 26°05' W 080°07'0 0.0
2017-Nov-28 09:58N 26°05' W 080°07'0 0.0
2017-Nov-28 09:28N 26°05' W 080°07'0 0.0
2017-Nov-28 08:58N 26°05' W 080°07'0 0.0
2017-Nov-28 08:28N 26°05' W 080°07'0 0.0
2017-Nov-28 07:58N 26°05' W 080°07'0 0.0
2017-Nov-28 07:28N 26°05' W 080°07'0 0.0
2017-Nov-28 06:49N 26°05' W 080°07'0 0.0
2017-Nov-28 06:19N 26°05' W 080°07'0 0.0
2017-Nov-28 05:49N 26°05' W 080°07'0 0.0
2017-Nov-28 05:22N 26°05' W 080°07'0 0.0
2017-Nov-28 04:22N 26°05' W 080°07'0 0.0
2017-Nov-28 03:52N 26°05' W 080°07'0 0.0
2017-Nov-28 03:22N 26°05' W 080°07'0 0.0
2017-Nov-28 02:52N 26°05' W 080°07'0 0.0
2017-Nov-28 02:25N 26°05' W 080°07'0 0.0
2017-Nov-28 01:55N 26°05' W 080°07'0 0.0
2017-Nov-28 01:25N 26°05' W 080°07'0 0.0
2017-Nov-28 00:55N 26°05' W 080°07'0 0.0
2017-Nov-28 00:25N 26°05' W 080°07'0 0.0
2017-Nov-27 23:52N 26°05' W 080°07'0 0.0
2017-Nov-27 23:28N 26°05' W 080°07'0 0.0
2017-Nov-27 22:58N 26°05' W 080°07'0 0.0
2017-Nov-27 22:25N 26°05' W 080°07'0 0.0
2017-Nov-27 21:58N 26°05' W 080°07'0 0.0
2017-Nov-27 21:28N 26°05' W 080°07'0 0.0
2017-Nov-27 20:58N 26°05' W 080°07'0 0.0
2017-Nov-27 20:28N 26°05' W 080°07'0 0.0
2017-Nov-27 19:58N 26°05' W 080°07'0 0.0
2017-Nov-27 19:28N 26°05' W 080°07'0 0.0
2017-Nov-27 18:46N 26°05' W 080°07'0 0.0
2017-Nov-27 18:28N 26°05' W 080°07'0 0.0
2017-Nov-27 17:58N 26°05' W 080°07'0 0.0
2017-Nov-27 17:28N 26°05' W 080°07'0 0.0
2017-Nov-27 16:49N 26°05' W 080°07'0 0.0
2017-Nov-27 16:28N 26°05' W 080°07'0 0.5
2017-Nov-27 16:00N 26°06' W 080°07'3 6.1
2017-Nov-27 15:30N 26°06' W 080°04'4 7.0
2017-Nov-27 15:00N 26°06' W 079°60'5 9.4
2017-Nov-27 14:30N 26°06' W 079°54'5 9.4
2017-Nov-27 14:00N 26°07' W 079°49'510.0
2017-Nov-27 13:30N 26°08' W 079°44'510.0
2017-Nov-27 13:00N 26°10' W 079°38'510.0
2017-Nov-27 12:30N 26°11' W 079°33'510.3
2017-Nov-27 12:00N 26°12' W 079°27'510.0
2017-Nov-27 11:30N 26°13' W 079°22'109 3.4
2017-Nov-26 03:48N 25°10' W 077°43'106 3.1
2017-Nov-24 17:42N 26°14' W 079°18'2 8.5
2017-Nov-24 17:29N 26°13' W 079°19'4 8.6
2017-Nov-24 17:01N 26°10' W 079°23'18 9.5
2017-Nov-24 15:07N 25°54' W 079°32'110.1
2017-Nov-24 15:00N 25°53' W 079°33'510.1
2017-Nov-24 14:31N 25°49' W 079°35'510.1
2017-Nov-24 14:00N 25°44' W 079°38'510.4
2017-Nov-24 13:30N 25°39' W 079°40'510.3
2017-Nov-24 13:00N 25°35' W 079°43'910.1
2017-Nov-24 12:09N 25°27' W 079°47'210.2
2017-Nov-24 11:59N 25°25' W 079°48'510.2
2017-Nov-24 11:30N 25°21' W 079°50'  
Track history (hours):
 
Tides and Currents Weather Stations Pressure Air Temp Water Temp Dewpoint Dewpoint Depression Visibility Wind Speed Wind Dir Waves Ship Positions

The World

Operator: Bergshav-Norway

Last reported at 2017-Dec-03 08:47 UTC. Time now 2017-Dec-14 14:59 UTC.
Position N 27°15' W 079°53'.
Warning: this ship's position is 11 days out of date.

Length 196 m; draft 7.1 m.

Type: Passenger vessel. MMSI: 311213000.

Date/timePositionNaut miles runAvg speedWind from/ knotsBaromVisibWave heightAir tempDewpointWater temp
2017-Dec-03 08:47N 27°15' W 079°53'2 9.3
2017-Dec-03 08:31N 27°13' W 079°52'6 9.5
2017-Dec-03 07:51N 27°07' W 079°51'4 9.7
2017-Dec-03 07:26N 27°03' W 079°50'410.0
2017-Dec-03 07:00N 26°59' W 079°49'5 9.1
2017-Dec-03 06:30N 26°55' W 079°51'5 9.1
2017-Dec-03 06:01N 26°51' W 079°54'4 8.1
2017-Dec-03 05:30N 26°48' W 079°57'4 8.5
2017-Dec-03 05:00N 26°46' W 080°01'2 3.1
2017-Dec-03 04:25N 26°46' W 080°03'0 0.0
2017-Dec-03 03:55N 26°46' W 080°03'0 0.0
2017-Dec-03 03:25N 26°46' W 080°03'0 0.0
2017-Dec-03 02:55N 26°46' W 080°03'0 0.0
2017-Dec-03 02:25N 26°46' W 080°03'0 0.0
2017-Dec-03 01:55N 26°46' W 080°03'0 0.0
2017-Dec-03 01:19N 26°46' W 080°03'0 0.0
2017-Dec-03 00:55N 26°46' W 080°03'0 0.0
2017-Dec-03 00:19N 26°46' W 080°03'0 0.0
2017-Dec-02 23:55N 26°46' W 080°03'0 0.0
2017-Dec-02 23:25N 26°46' W 080°03'0 0.0
2017-Dec-02 22:55N 26°46' W 080°03'0 0.0
2017-Dec-02 22:25N 26°46' W 080°03'0 0.0
2017-Dec-02 21:55N 26°46' W 080°03'0 0.0
2017-Dec-02 21:25N 26°46' W 080°03'0 0.0
2017-Dec-02 20:55N 26°46' W 080°03'0 0.0
2017-Dec-02 20:25N 26°46' W 080°03'0 0.0
2017-Dec-02 19:55N 26°46' W 080°03'0 0.0
2017-Dec-02 19:25N 26°46' W 080°03'0 0.0
2017-Dec-02 18:55N 26°46' W 080°03'0 0.0
2017-Dec-02 18:25N 26°46' W 080°03'0 0.0
2017-Dec-02 17:55N 26°46' W 080°03'0 0.0
2017-Dec-02 17:25N 26°46' W 080°03'0 0.0
2017-Dec-02 16:55N 26°46' W 080°03'0 0.0
2017-Dec-02 16:25N 26°46' W 080°03'0 0.0
2017-Dec-02 15:55N 26°46' W 080°03'0 0.0
2017-Dec-02 15:25N 26°46' W 080°03'0 0.0
2017-Dec-02 14:55N 26°46' W 080°03'0 0.0
2017-Dec-02 14:25N 26°46' W 080°03'0 0.0
2017-Dec-02 13:55N 26°46' W 080°03'0 0.0
2017-Dec-02 13:25N 26°46' W 080°03'0 0.0
2017-Dec-02 12:55N 26°46' W 080°03'1 2.2
2017-Dec-02 12:30N 26°46' W 080°02'4 8.5
2017-Dec-02 12:00N 26°46' W 079°57'5 9.5
2017-Dec-02 11:30N 26°45' W 079°52'4 7.7
2017-Dec-02 11:00N 26°44' W 079°48'4 7.3
2017-Dec-02 10:30N 26°43' W 079°44'5 8.9
2017-Dec-02 09:56N 26°38' W 079°44'4 9.1
2017-Dec-02 09:30N 26°34' W 079°43'5 9.7
2017-Dec-02 09:00N 26°29' W 079°43'5 9.7
2017-Dec-02 08:30N 26°25' W 079°43'510.0
2017-Dec-02 08:00N 26°20' W 079°43'7 9.9
2017-Dec-02 07:18N 26°13' W 079°42'3 9.6
2017-Dec-02 07:00N 26°10' W 079°42'4 8.5
2017-Dec-02 06:30N 26°06' W 079°43'4 7.3
2017-Dec-02 06:00N 26°06' W 079°48'4 7.6
2017-Dec-02 05:30N 26°06' W 079°52'4 7.9
2017-Dec-02 05:01N 26°05' W 079°56'4 8.1
2017-Dec-02 04:30N 26°05' W 080°01'4 8.4
2017-Dec-02 04:00N 26°06' W 080°05'2 2.6
2017-Dec-02 03:25N 26°05' W 080°07'0 0.0
2017-Dec-02 02:55N 26°05' W 080°07'0 0.0
2017-Dec-02 02:25N 26°05' W 080°07'0 0.0
2017-Dec-02 01:55N 26°05' W 080°07'0 0.0
2017-Dec-02 01:25N 26°05' W 080°07'0 0.0
2017-Dec-02 00:58N 26°05' W 080°07'0 0.0
2017-Dec-02 00:28N 26°05' W 080°07'0 0.0
2017-Dec-01 23:58N 26°05' W 080°07'0 0.0
2017-Dec-01 23:28N 26°05' W 080°07'0 0.0
2017-Dec-01 22:55N 26°05' W 080°07'0 0.0
2017-Dec-01 22:28N 26°05' W 080°07'0 0.0
2017-Dec-01 21:58N 26°05' W 080°07'0 0.0
2017-Dec-01 21:28N 26°05' W 080°07'0 0.0
2017-Dec-01 20:58N 26°05' W 080°07'0 0.0
2017-Dec-01 20:28N 26°05' W 080°07'0 0.0
2017-Dec-01 19:58N 26°05' W 080°07'0 0.0
2017-Dec-01 19:28N 26°05' W 080°07'0 0.0
2017-Dec-01 18:58N 26°05' W 080°07'0 0.0
2017-Dec-01 18:28N 26°05' W 080°07'0 0.0
2017-Dec-01 17:49N 26°05' W 080°07'0 0.0
2017-Dec-01 17:19N 26°05' W 080°07'0 0.0
2017-Dec-01 16:49N 26°05' W 080°07'0 0.0
2017-Dec-01 16:22N 26°05' W 080°07'0 0.0
2017-Dec-01 15:52N 26°05' W 080°07'0 0.0
2017-Dec-01 15:22N 26°05' W 080°07'0 0.0
2017-Dec-01 14:52N 26°05' W 080°07'0 0.0
2017-Dec-01 14:22N 26°05' W 080°07'0 0.0
2017-Dec-01 13:52N 26°05' W 080°07'0 0.0
2017-Dec-01 13:25N 26°05' W 080°07'0 0.0
2017-Dec-01 12:55N 26°05' W 080°07'0 0.0
2017-Dec-01 12:25N 26°05' W 080°07'0 0.0
2017-Dec-01 11:55N 26°05' W 080°07'0 0.0
2017-Dec-01 11:25N 26°05' W 080°07'0 0.0
2017-Dec-01 10:58N 26°05' W 080°07'0 0.0
2017-Dec-01 10:28N 26°05' W 080°07'0 0.0
2017-Dec-01 09:58N 26°05' W 080°07'0 0.0
2017-Dec-01 09:28N 26°05' W 080°07'0 0.0
2017-Dec-01 08:58N 26°05' W 080°07'0 0.0
2017-Dec-01 08:28N 26°05' W 080°07'0 0.0
2017-Dec-01 07:58N 26°05' W 080°07'0 0.0
2017-Dec-01 07:28N 26°05' W 080°07'0 0.0
2017-Dec-01 06:58N 26°05' W 080°07'0 0.0
2017-Dec-01 06:28N 26°05' W 080°07'0 0.0
2017-Dec-01 05:58N 26°05' W 080°07'0 0.0
2017-Dec-01 05:28N 26°05' W 080°07'0 0.0
2017-Dec-01 04:58N 26°05' W 080°07'0 0.0
2017-Dec-01 04:28N 26°05' W 080°07'0 0.0
2017-Dec-01 03:49N 26°05' W 080°07'0 0.0
2017-Dec-01 03:19N 26°05' W 080°07'0 0.0
2017-Dec-01 02:49N 26°05' W 080°07'0 0.0
2017-Dec-01 02:22N 26°05' W 080°07'0 0.0
2017-Dec-01 01:52N 26°05' W 080°07'0 0.0
2017-Dec-01 01:22N 26°05' W 080°07'0 0.0
2017-Dec-01 00:52N 26°05' W 080°07'0 0.0
2017-Dec-01 00:22N 26°05' W 080°07'0 0.0
2017-Nov-30 23:55N 26°05' W 080°07'0 0.0
2017-Nov-30 23:25N 26°05' W 080°07'0 0.0
2017-Nov-30 22:55N 26°05' W 080°07'0 0.0
2017-Nov-30 22:25N 26°05' W 080°07'0 0.0
2017-Nov-30 21:55N 26°05' W 080°07'0 0.0
2017-Nov-30 21:25N 26°05' W 080°07'0 0.0
2017-Nov-30 20:58N 26°05' W 080°07'0 0.0
2017-Nov-30 20:28N 26°05' W 080°07'0 0.0
2017-Nov-30 19:58N 26°05' W 080°07'0 0.0
2017-Nov-30 19:25N 26°05' W 080°07'0 0.0
2017-Nov-30 18:58N 26°05' W 080°07'0 0.0
2017-Nov-30 18:28N 26°05' W 080°07'0 0.0
2017-Nov-30 17:58N 26°05' W 080°07'0 0.0
2017-Nov-30 17:28N 26°05' W 080°07'0 0.0
2017-Nov-30 16:58N 26°05' W 080°07'0 0.0
2017-Nov-30 16:28N 26°05' W 080°07'0 0.0
2017-Nov-30 15:58N 26°05' W 080°07'0 0.0
2017-Nov-30 15:28N 26°05' W 080°07'0 0.0
2017-Nov-30 14:49N 26°05' W 080°07'0 0.0
2017-Nov-30 14:28N 26°05' W 080°07'0 0.0
2017-Nov-30 13:49N 26°05' W 080°07'0 0.0
2017-Nov-30 13:19N 26°05' W 080°07'0 0.0
2017-Nov-30 12:49N 26°05' W 080°07'0 0.0
2017-Nov-30 12:22N 26°05' W 080°07'0 0.0
2017-Nov-30 11:52N 26°05' W 080°07'0 0.0
2017-Nov-30 11:22N 26°05' W 080°07'0 0.0
2017-Nov-30 10:52N 26°05' W 080°07'0 0.0
2017-Nov-30 10:22N 26°05' W 080°07'0 0.0
2017-Nov-30 09:55N 26°05' W 080°07'0 0.0
2017-Nov-30 09:25N 26°05' W 080°07'0 0.0
2017-Nov-30 08:52N 26°05' W 080°07'0 0.0
2017-Nov-30 08:25N 26°05' W 080°07'0 0.0
2017-Nov-30 07:55N 26°05' W 080°07'0 0.0
2017-Nov-30 07:28N 26°05' W 080°07'0 0.0
2017-Nov-30 06:58N 26°05' W 080°07'0 0.0
2017-Nov-30 06:28N 26°05' W 080°07'0 0.0
2017-Nov-30 05:58N 26°05' W 080°07'0 0.0
2017-Nov-30 05:28N 26°05' W 080°07'0 0.0
2017-Nov-30 04:58N 26°05' W 080°07'0 0.0
2017-Nov-30 04:28N 26°05' W 080°07'0 0.0
2017-Nov-30 03:58N 26°05' W 080°07'0 0.0
2017-Nov-30 03:28N 26°05' W 080°07'0 0.0
2017-Nov-30 02:58N 26°05' W 080°07'0 0.0
2017-Nov-30 02:28N 26°05' W 080°07'0 0.0
2017-Nov-30 01:58N 26°05' W 080°07'0 0.0
2017-Nov-30 01:28N 26°05' W 080°07'0 0.0
2017-Nov-30 00:58N 26°05' W 080°07'0 0.0
2017-Nov-30 00:19N 26°05' W 080°07'0 0.0
2017-Nov-29 23:49N 26°05' W 080°07'0 0.0
2017-Nov-29 23:19N 26°05' W 080°07'0 0.0
2017-Nov-29 22:52N 26°05' W 080°07'0 0.0
2017-Nov-29 22:22N 26°05' W 080°07'0 0.0
2017-Nov-29 21:52N 26°05' W 080°07'0 0.0
2017-Nov-29 21:22N 26°05' W 080°07'0 0.0
2017-Nov-29 20:52N 26°05' W 080°07'0 0.0
2017-Nov-29 20:22N 26°05' W 080°07'0 0.0
2017-Nov-29 19:52N 26°05' W 080°07'0 0.0
2017-Nov-29 19:25N 26°05' W 080°07'0 0.0
2017-Nov-29 18:55N 26°05' W 080°07'0 0.0
2017-Nov-29 18:25N 26°05' W 080°07'0 0.0
2017-Nov-29 17:55N 26°05' W 080°07'0 0.0
2017-Nov-29 17:28N 26°05' W 080°07'0 0.0
2017-Nov-29 16:58N 26°05' W 080°07'0 0.0
2017-Nov-29 16:28N 26°05' W 080°07'0 0.0
2017-Nov-29 15:58N 26°05' W 080°07'0 0.0
2017-Nov-29 15:28N 26°05' W 080°07'0 0.0
2017-Nov-29 14:58N 26°05' W 080°07'0 0.0
2017-Nov-29 14:28N 26°05' W 080°07'0 0.0
2017-Nov-29 13:58N 26°05' W 080°07'0 0.0
2017-Nov-29 13:28N 26°05' W 080°07'0 0.0
2017-Nov-29 12:58N 26°05' W 080°07'0 0.0
2017-Nov-29 12:28N 26°05' W 080°07'0 0.0
2017-Nov-29 11:58N 26°05' W 080°07'0 0.0
2017-Nov-29 11:28N 26°05' W 080°07'0 0.0
2017-Nov-29 10:46N 26°05' W 080°07'0 0.0
2017-Nov-29 10:19N 26°05' W 080°07'0 0.0
2017-Nov-29 09:49N 26°05' W 080°07'0 0.0
2017-Nov-29 09:19N 26°05' W 080°07'0 0.0
2017-Nov-29 08:52N 26°05' W 080°07'0 0.0
2017-Nov-29 08:22N 26°05' W 080°07'0 0.0
2017-Nov-29 07:52N 26°05' W 080°07'0 0.0
2017-Nov-29 07:22N 26°05' W 080°07'0 0.0
2017-Nov-29 06:52N 26°05' W 080°07'0 0.0
2017-Nov-29 06:22N 26°05' W 080°07'0 0.0
2017-Nov-29 05:55N 26°05' W 080°07'0 0.0
2017-Nov-29 05:25N 26°05' W 080°07'0 0.0
2017-Nov-29 04:55N 26°05' W 080°07'0 0.0
2017-Nov-29 04:25N 26°05' W 080°07'0 0.0
2017-Nov-29 03:55N 26°05' W 080°07'0 0.0
2017-Nov-29 03:28N 26°05' W 080°07'0 0.0
2017-Nov-29 02:58N 26°05' W 080°07'0 0.0
2017-Nov-29 02:28N 26°05' W 080°07'0 0.0
2017-Nov-29 01:58N 26°05' W 080°07'0 0.0
2017-Nov-29 01:28N 26°05' W 080°07'0 0.0
2017-Nov-29 00:58N 26°05' W 080°07'0 0.0
2017-Nov-29 00:28N 26°05' W 080°07'0 0.0
2017-Nov-28 23:58N 26°05' W 080°07'0 0.0
2017-Nov-28 23:28N 26°05' W 080°07'0 0.0
2017-Nov-28 22:58N 26°05' W 080°07'0 0.0
2017-Nov-28 22:28N 26°05' W 080°07'0 0.0
2017-Nov-28 21:58N 26°05' W 080°07'0 0.0
2017-Nov-28 21:19N 26°05' W 080°07'0 0.0
2017-Nov-28 20:58N 26°05' W 080°07'0 0.0
2017-Nov-28 20:19N 26°05' W 080°07'0 0.0
2017-Nov-28 19:49N 26°05' W 080°07'0 0.0
2017-Nov-28 19:19N 26°05' W 080°07'0 0.0
2017-Nov-28 18:52N 26°05' W 080°07'0 0.0
2017-Nov-28 18:22N 26°05' W 080°07'0 0.0
2017-Nov-28 17:52N 26°05' W 080°07'0 0.0
2017-Nov-28 17:22N 26°05' W 080°07'0 0.0
2017-Nov-28 16:52N 26°05' W 080°07'0 0.0
2017-Nov-28 16:25N 26°05' W 080°07'0 0.0
2017-Nov-28 15:55N 26°05' W 080°07'0 0.0
2017-Nov-28 14:55N 26°05' W 080°07'0 0.0
2017-Nov-28 14:25N 26°05' W 080°07'0 0.0
2017-Nov-28 13:55N 26°05' W 080°07'0 0.0
2017-Nov-28 13:28N 26°05' W 080°07'0 0.0
2017-Nov-28 12:58N 26°05' W 080°07'0 0.0
2017-Nov-28 12:28N 26°05' W 080°07'0 0.0
2017-Nov-28 11:58N 26°05' W 080°07'0 0.0
2017-Nov-28 11:28N 26°05' W 080°07'0 0.0
2017-Nov-28 10:58N 26°05' W 080°07'0 0.0
2017-Nov-28 10:28N 26°05' W 080°07'0 0.0
2017-Nov-28 09:58N 26°05' W 080°07'0 0.0
2017-Nov-28 09:28N 26°05' W 080°07'0 0.0
2017-Nov-28 08:58N 26°05' W 080°07'0 0.0
2017-Nov-28 08:28N 26°05' W 080°07'0 0.0
2017-Nov-28 07:58N 26°05' W 080°07'0 0.0
2017-Nov-28 07:28N 26°05' W 080°07'0 0.0
2017-Nov-28 06:49N 26°05' W 080°07'0 0.0
2017-Nov-28 06:19N 26°05' W 080°07'0 0.0
2017-Nov-28 05:49N 26°05' W 080°07'0 0.0
2017-Nov-28 05:22N 26°05' W 080°07'0 0.0
2017-Nov-28 04:22N 26°05' W 080°07'0 0.0
2017-Nov-28 03:52N 26°05' W 080°07'0 0.0
2017-Nov-28 03:22N 26°05' W 080°07'0 0.0
2017-Nov-28 02:52N 26°05' W 080°07'0 0.0
2017-Nov-28 02:25N 26°05' W 080°07'0 0.0
2017-Nov-28 01:55N 26°05' W 080°07'0 0.0
2017-Nov-28 01:25N 26°05' W 080°07'0 0.0
2017-Nov-28 00:55N 26°05' W 080°07'0 0.0
2017-Nov-28 00:25N 26°05' W 080°07'0 0.0
2017-Nov-27 23:52N 26°05' W 080°07'0 0.0
2017-Nov-27 23:28N 26°05' W 080°07'0 0.0
2017-Nov-27 22:58N 26°05' W 080°07'0 0.0
2017-Nov-27 22:25N 26°05' W 080°07'0 0.0
2017-Nov-27 21:58N 26°05' W 080°07'0 0.0
2017-Nov-27 21:28N 26°05' W 080°07'0 0.0
2017-Nov-27 20:58N 26°05' W 080°07'0 0.0
2017-Nov-27 20:28N 26°05' W 080°07'0 0.0
2017-Nov-27 19:58N 26°05' W 080°07'0 0.0
2017-Nov-27 19:28N 26°05' W 080°07'0 0.0
2017-Nov-27 18:46N 26°05' W 080°07'0 0.0
2017-Nov-27 18:28N 26°05' W 080°07'0 0.0
2017-Nov-27 17:58N 26°05' W 080°07'0 0.0
2017-Nov-27 17:28N 26°05' W 080°07'0 0.0
2017-Nov-27 16:49N 26°05' W 080°07'0 0.0
2017-Nov-27 16:28N 26°05' W 080°07'0 0.5
2017-Nov-27 16:00N 26°06' W 080°07'3 6.1
2017-Nov-27 15:30N 26°06' W 080°04'4 7.0
2017-Nov-27 15:00N 26°06' W 079°60'5 9.4
2017-Nov-27 14:30N 26°06' W 079°54'5 9.4
2017-Nov-27 14:00N 26°07' W 079°49'510.0
2017-Nov-27 13:30N 26°08' W 079°44'510.0
2017-Nov-27 13:00N 26°10' W 079°38'510.0
2017-Nov-27 12:30N 26°11' W 079°33'510.3
2017-Nov-27 12:00N 26°12' W 079°27'510.0
2017-Nov-27 11:30N 26°13' W 079°22'109 3.4
2017-Nov-26 03:48N 25°10' W 077°43'106 3.1
2017-Nov-24 17:42N 26°14' W 079°18'2 8.5
2017-Nov-24 17:29N 26°13' W 079°19'4 8.6
2017-Nov-24 17:01N 26°10' W 079°23'18 9.5
2017-Nov-24 15:07N 25°54' W 079°32'110.1
2017-Nov-24 15:00N 25°53' W 079°33'510.1
2017-Nov-24 14:31N 25°49' W 079°35'510.1
2017-Nov-24 14:00N 25°44' W 079°38'510.4
2017-Nov-24 13:30N 25°39' W 079°40'510.3
2017-Nov-24 13:00N 25°35' W 079°43'910.1
2017-Nov-24 12:09N 25°27' W 079°47'210.2
2017-Nov-24 11:59N 25°25' W 079°48'510.2
2017-Nov-24 11:30N 25°21' W 079°50'  

Dump ship's entire track history